createdAt,value
2018-02-21T00:00:12.372Z,65.90
2018-02-21T00:02:39.924Z,66.40
2018-02-21T00:05:07.508Z,65.80
2018-02-21T00:07:35.063Z,65.90
2018-02-21T00:10:02.629Z,66.00
2018-02-21T00:12:30.198Z,66.00
2018-02-21T00:14:57.784Z,65.80
2018-02-21T00:17:25.324Z,65.90
2018-02-21T00:19:52.966Z,66.20
2018-02-21T00:22:20.524Z,66.10
2018-02-21T00:24:48.115Z,66.10
2018-02-21T00:27:16.423Z,65.90
2018-02-21T00:29:43.967Z,65.90
2018-02-21T00:32:11.548Z,65.90
2018-02-21T00:34:39.118Z,65.80
2018-02-21T00:37:06.717Z,66.50
2018-02-21T00:39:34.268Z,66.20
2018-02-21T00:42:01.845Z,66.30
2018-02-21T00:44:30.156Z,66.30
2018-02-21T00:46:57.727Z,66.30
2018-02-21T00:49:25.284Z,66.40
2018-02-21T00:51:53.643Z,66.50
2018-02-21T00:54:21.268Z,66.50
2018-02-21T00:56:48.858Z,66.50
2018-02-21T00:59:17.180Z,66.50
2018-02-21T01:01:44.727Z,66.50
2018-02-21T01:04:12.317Z,66.60
2018-02-21T01:06:39.856Z,66.60
2018-02-21T01:09:07.415Z,66.70
2018-02-21T01:11:34.967Z,66.70
2018-02-21T01:14:02.531Z,66.60
2018-02-21T01:16:30.088Z,66.70
2018-02-21T01:18:57.659Z,66.60
2018-02-21T01:21:25.985Z,67.00
2018-02-21T01:23:53.540Z,67.00
2018-02-21T01:26:21.092Z,67.00
2018-02-21T01:28:48.660Z,67.20
2018-02-21T01:31:16.972Z,67.00
2018-02-21T01:33:44.544Z,67.00
2018-02-21T01:36:12.095Z,67.10
2018-02-21T01:38:39.708Z,67.30
2018-02-21T01:41:07.291Z,67.50
2018-02-21T01:43:34.836Z,67.60
2018-02-21T01:46:03.171Z,68.00
2018-02-21T01:48:30.725Z,67.90
2018-02-21T01:50:59.080Z,67.70
2018-02-21T01:53:26.638Z,67.70
2018-02-21T01:55:54.209Z,68.00
2018-02-21T01:58:22.542Z,68.00
2018-02-21T02:00:50.210Z,68.00
2018-02-21T02:03:17.769Z,68.40
2018-02-21T02:05:45.339Z,68.30
2018-02-21T02:08:12.937Z,68.10
2018-02-21T02:10:40.541Z,68.00
2018-02-21T02:13:08.109Z,68.10
2018-02-21T02:15:35.667Z,68.20
2018-02-21T02:18:03.267Z,68.10
2018-02-21T02:20:30.820Z,68.30
2018-02-21T02:22:58.400Z,68.40
2018-02-21T02:25:25.964Z,68.40
2018-02-21T02:27:54.382Z,68.80
2018-02-21T02:30:21.936Z,68.70
2018-02-21T02:32:49.524Z,68.60
2018-02-21T02:35:17.843Z,68.70
2018-02-21T02:37:45.409Z,68.70
2018-02-21T02:40:13.019Z,68.70
2018-02-21T02:42:40.682Z,69.30
2018-02-21T02:45:08.243Z,68.90
2018-02-21T02:47:37.341Z,69.00
2018-02-21T02:50:05.661Z,69.40
2018-02-21T02:52:33.220Z,69.30
2018-02-21T02:55:01.596Z,69.40
2018-02-21T02:57:29.174Z,69.40
2018-02-21T02:59:56.733Z,69.90
2018-02-21T03:02:24.285Z,69.40
2018-02-21T03:04:51.853Z,69.30
2018-02-21T03:07:19.413Z,69.40
2018-02-21T03:09:47.009Z,69.60
2018-02-21T03:12:14.560Z,69.60
2018-02-21T03:14:42.120Z,69.50
2018-02-21T03:17:09.678Z,69.30
2018-02-21T03:19:37.241Z,69.30
2018-02-21T03:22:04.800Z,69.20
2018-02-21T03:24:32.375Z,69.20
2018-02-21T03:26:59.924Z,69.30
2018-02-21T03:29:27.473Z,69.60
2018-02-21T03:31:55.081Z,69.70
2018-02-21T03:34:23.396Z,70.00
2018-02-21T03:36:50.992Z,69.80
2018-02-21T03:39:19.331Z,70.00
2018-02-21T03:41:46.907Z,69.90
2018-02-21T03:44:15.225Z,69.90
2018-02-21T03:46:42.803Z,69.90
2018-02-21T03:49:11.130Z,69.80
2018-02-21T03:51:38.696Z,69.80
2018-02-21T03:54:06.240Z,69.90
2018-02-21T03:56:34.370Z,70.10
2018-02-21T03:59:01.929Z,70.70
2018-02-21T04:01:29.495Z,70.30
2018-02-21T04:03:57.043Z,70.60
2018-02-21T04:06:25.399Z,70.70
2018-02-21T04:08:53.776Z,70.70
2018-02-21T04:11:21.370Z,70.60
2018-02-21T04:13:48.947Z,70.90
2018-02-21T04:16:16.505Z,70.90
2018-02-21T04:18:44.848Z,71.20
2018-02-21T04:21:12.412Z,71.10
2018-02-21T04:23:40.756Z,71.50
2018-02-21T04:26:08.319Z,71.50
2018-02-21T04:28:35.891Z,71.60
2018-02-21T04:31:03.431Z,71.70
2018-02-21T04:33:31.004Z,71.40
2018-02-21T04:35:58.603Z,71.50
2018-02-21T04:38:26.931Z,71.20
2018-02-21T04:40:54.548Z,71.20
2018-02-21T04:43:22.298Z,71.30
2018-02-21T04:45:49.954Z,71.50
2018-02-21T04:48:17.513Z,71.20
2018-02-21T04:50:45.094Z,71.30
2018-02-21T04:53:12.636Z,71.20
2018-02-21T04:55:55.117Z,71.50
2018-02-21T04:58:25.149Z,71.50
2018-02-21T05:00:53.485Z,71.50
2018-02-21T05:03:21.052Z,71.50
2018-02-21T05:05:49.380Z,71.80
2018-02-21T05:08:16.928Z,71.80
2018-02-21T05:10:44.521Z,71.90
2018-02-21T05:13:12.072Z,71.70
2018-02-21T05:15:39.640Z,71.80
2018-02-21T05:18:07.185Z,71.90
2018-02-21T05:20:34.832Z,72.00
2018-02-21T05:23:02.379Z,72.00
2018-02-21T05:25:30.023Z,72.00
2018-02-21T05:27:57.580Z,72.00
2018-02-21T05:30:25.142Z,72.00
2018-02-21T05:32:52.716Z,72.10
2018-02-21T05:35:21.974Z,71.70
2018-02-21T05:37:49.540Z,71.80
2018-02-21T05:40:17.148Z,71.70
2018-02-21T05:42:44.752Z,71.50
2018-02-21T05:45:12.296Z,71.50
2018-02-21T05:47:39.864Z,71.50
2018-02-21T05:50:07.415Z,71.80
2018-02-21T05:52:35.039Z,71.90
2018-02-21T05:55:02.588Z,72.00
2018-02-21T05:57:30.145Z,71.90
2018-02-21T05:59:57.704Z,71.80
2018-02-21T06:02:25.294Z,71.90
2018-02-21T06:04:52.857Z,72.00
2018-02-21T06:07:20.451Z,71.90
2018-02-21T06:09:48.019Z,72.00
2018-02-21T06:12:16.345Z,72.00
2018-02-21T06:14:43.913Z,72.00
2018-02-21T06:17:11.471Z,72.10
2018-02-21T06:19:39.812Z,72.40
2018-02-21T06:22:07.373Z,72.40
2018-02-21T06:24:35.792Z,72.40
2018-02-21T06:27:03.346Z,72.40
2018-02-21T06:29:30.924Z,72.30
2018-02-21T06:31:59.241Z,73.00
2018-02-21T06:34:26.803Z,72.30
2018-02-21T06:36:54.364Z,72.10
2018-02-21T06:39:22.404Z,72.10
2018-02-21T06:41:49.947Z,72.00
2018-02-21T06:44:17.496Z,71.90
2018-02-21T06:46:45.063Z,71.90
2018-02-21T06:49:12.636Z,72.00
2018-02-21T06:51:40.208Z,72.00
2018-02-21T06:54:07.752Z,71.90
2018-02-21T06:56:35.337Z,71.50
2018-02-21T06:59:02.890Z,71.30
2018-02-21T07:01:31.235Z,70.70
2018-02-21T07:03:58.800Z,70.70
2018-02-21T07:06:27.211Z,70.30
2018-02-21T07:08:54.763Z,70.30
2018-02-21T07:11:23.264Z,70.10
2018-02-21T07:13:50.840Z,70.80
2018-02-21T07:16:18.406Z,70.00
2018-02-21T07:18:45.959Z,70.20
2018-02-21T07:21:13.547Z,70.20
2018-02-21T07:23:41.896Z,70.10
2018-02-21T07:26:10.221Z,70.10
2018-02-21T07:28:37.791Z,70.20
2018-02-21T07:31:05.347Z,69.90
2018-02-21T07:33:32.928Z,69.60
2018-02-21T07:36:00.541Z,69.10
2018-02-21T07:38:28.103Z,68.70
2018-02-21T07:40:56.521Z,68.30
2018-02-21T07:43:24.920Z,67.90
2018-02-21T07:45:52.496Z,67.80
2018-02-21T07:48:20.060Z,67.70
2018-02-21T07:50:47.615Z,67.90
2018-02-21T07:53:15.176Z,68.00
2018-02-21T07:55:42.729Z,68.20
2018-02-21T07:58:10.291Z,68.00
2018-02-21T08:00:37.863Z,67.80
2018-02-21T08:03:05.424Z,68.20
2018-02-21T08:05:32.981Z,67.20
2018-02-21T08:08:00.557Z,67.20
2018-02-21T08:10:28.148Z,67.20
2018-02-21T08:12:56.550Z,67.10
2018-02-21T08:15:26.713Z,67.30
2018-02-21T08:17:54.288Z,67.20
2018-02-21T08:20:21.871Z,67.00
2018-02-21T08:22:49.423Z,66.70
2018-02-21T08:25:16.994Z,66.40
2018-02-21T08:27:44.572Z,66.50
2018-02-21T08:30:12.137Z,66.70
2018-02-21T08:32:39.691Z,66.70
2018-02-21T08:35:07.358Z,66.40
2018-02-21T08:37:35.673Z,66.20
2018-02-21T08:40:03.322Z,66.20
2018-02-21T08:42:30.875Z,65.90
2018-02-21T08:44:58.443Z,65.50
2018-02-21T08:47:26.760Z,65.30
2018-02-21T08:49:54.325Z,65.20
2018-02-21T08:52:22.887Z,65.00
2018-02-21T08:54:50.455Z,64.90
2018-02-21T08:57:18.004Z,64.60
2018-02-21T08:59:45.596Z,64.20
2018-02-21T09:02:13.137Z,64.00
2018-02-21T09:04:40.702Z,63.90
2018-02-21T09:07:09.073Z,64.10
2018-02-21T09:09:36.860Z,64.10
2018-02-21T09:12:04.707Z,63.60
2018-02-21T09:14:32.294Z,63.90
2018-02-21T09:16:59.855Z,63.80
2018-02-21T09:19:27.447Z,63.30
2018-02-21T09:21:55.796Z,62.50
2018-02-21T09:24:23.622Z,62.30
2018-02-21T09:26:51.270Z,62.50
2018-02-21T09:29:18.807Z,62.20
2018-02-21T09:31:46.372Z,61.80
2018-02-21T09:34:13.915Z,61.30
2018-02-21T09:36:43.023Z,60.80
2018-02-21T09:39:11.354Z,60.50
2018-02-21T09:41:38.941Z,60.50
2018-02-21T09:44:07.265Z,61.10
2018-02-21T09:46:35.787Z,60.40
2018-02-21T09:49:03.356Z,61.00
2018-02-21T09:51:31.891Z,60.50
2018-02-21T09:53:59.483Z,60.20
2018-02-21T09:56:28.336Z,60.40
2018-02-21T09:58:55.900Z,59.80
2018-02-21T10:01:23.452Z,59.60
2018-02-21T10:03:51.048Z,59.60
2018-02-21T10:06:19.354Z,58.30
2018-02-21T10:08:46.916Z,58.30
2018-02-21T10:11:14.475Z,57.80
2018-02-21T10:13:42.811Z,56.80
2018-02-21T10:16:11.135Z,56.00
2018-02-21T10:18:38.740Z,56.00
2018-02-21T10:21:06.278Z,55.30
2018-02-21T10:23:33.861Z,55.70
2018-02-21T10:26:01.401Z,55.00
2018-02-21T10:28:29.090Z,54.50
2018-02-21T10:30:56.651Z,54.60
2018-02-21T10:33:24.206Z,54.70
2018-02-21T10:35:51.769Z,53.80
2018-02-21T10:38:20.075Z,53.50
2018-02-21T10:40:47.640Z,53.40
2018-02-21T10:43:15.227Z,52.50
2018-02-21T10:45:43.555Z,52.70
2018-02-21T10:48:11.092Z,52.60
2018-02-21T10:50:38.656Z,51.80
2018-02-21T10:53:06.196Z,51.30
2018-02-21T10:55:35.264Z,51.70
2018-02-21T10:58:02.803Z,51.70
2018-02-21T11:00:36.207Z,51.30
2018-02-21T11:03:03.793Z,51.00
2018-02-21T11:05:31.355Z,51.00
2018-02-21T11:07:58.908Z,50.10
2018-02-21T11:10:26.464Z,49.80
2018-02-21T11:12:54.057Z,50.00
2018-02-21T11:15:22.377Z,50.70
2018-02-21T11:17:49.948Z,50.70
2018-02-21T11:20:18.261Z,50.50
2018-02-21T11:22:45.829Z,50.50
2018-02-21T11:25:13.373Z,48.90
2018-02-21T11:27:40.940Z,48.40
2018-02-21T11:30:09.260Z,48.10
2018-02-21T11:32:36.816Z,48.20
2018-02-21T11:35:04.372Z,47.80
2018-02-21T11:37:31.947Z,47.10
2018-02-21T11:40:00.304Z,47.30
2018-02-21T11:42:28.648Z,47.00
2018-02-21T11:44:56.205Z,47.00
2018-02-21T11:47:23.783Z,46.40
2018-02-21T11:49:51.328Z,47.20
2018-02-21T11:52:18.888Z,47.30
2018-02-21T11:54:46.484Z,47.00
2018-02-21T11:57:14.028Z,47.20
2018-02-21T11:59:41.588Z,47.60
2018-02-21T12:02:09.902Z,48.40
2018-02-21T12:04:37.492Z,47.90
2018-02-21T12:07:05.088Z,47.90
2018-02-21T12:09:32.643Z,47.60
2018-02-21T12:12:00.183Z,47.70
2018-02-21T12:14:27.744Z,48.40
2018-02-21T12:16:55.299Z,48.10
2018-02-21T12:19:23.701Z,48.80
2018-02-21T12:21:51.260Z,48.80
2018-02-21T12:24:18.820Z,48.60
2018-02-21T12:26:46.376Z,48.60
2018-02-21T12:29:13.959Z,48.00
2018-02-21T12:31:42.279Z,48.10
2018-02-21T12:34:10.029Z,48.10
2018-02-21T12:36:37.588Z,47.20
2018-02-21T12:39:11.607Z,45.80
2018-02-21T12:41:43.015Z,45.80
2018-02-21T12:44:10.573Z,45.70
2018-02-21T12:46:38.147Z,45.50
2018-02-21T12:49:06.456Z,46.00
2018-02-21T12:51:34.044Z,45.90
2018-02-21T12:54:02.508Z,46.10
2018-02-21T12:56:30.847Z,45.90
2018-02-21T12:58:58.440Z,45.90
2018-02-21T13:01:26.024Z,45.40
2018-02-21T13:03:53.585Z,44.70
2018-02-21T13:06:21.171Z,44.20
2018-02-21T13:08:48.884Z,43.30
2018-02-21T13:11:16.463Z,43.40
2018-02-21T13:13:44.107Z,43.80
2018-02-21T13:16:11.688Z,43.60
2018-02-21T13:18:39.227Z,42.90
2018-02-21T13:21:06.818Z,42.10
2018-02-21T13:23:34.367Z,41.90
2018-02-21T13:26:01.918Z,41.70
2018-02-21T13:28:30.239Z,41.40
2018-02-21T13:30:57.780Z,41.40
2018-02-21T13:33:25.377Z,41.20
2018-02-21T13:35:53.730Z,40.90
2018-02-21T13:38:21.408Z,40.90
2018-02-21T13:40:49.067Z,41.00
2018-02-21T13:43:16.636Z,41.20
2018-02-21T13:45:44.188Z,41.40
2018-02-21T13:48:11.785Z,41.30
2018-02-21T13:50:39.381Z,41.40
2018-02-21T13:53:06.976Z,41.30
2018-02-21T13:55:34.524Z,41.00
2018-02-21T13:58:02.109Z,40.60
2018-02-21T14:00:29.723Z,40.80
2018-02-21T14:02:57.303Z,40.70
2018-02-21T14:05:24.876Z,40.80
2018-02-21T14:07:53.184Z,40.80
2018-02-21T14:10:20.749Z,40.80
2018-02-21T14:12:48.290Z,40.20
2018-02-21T14:15:15.855Z,40.50
2018-02-21T14:17:43.396Z,40.30
2018-02-21T14:20:11.384Z,40.40
2018-02-21T14:22:39.699Z,40.70
2018-02-21T14:25:07.279Z,40.70
2018-02-21T14:27:35.610Z,40.80
2018-02-21T14:30:03.252Z,40.80
2018-02-21T14:32:30.795Z,40.20
2018-02-21T14:34:58.372Z,40.20
2018-02-21T14:37:26.007Z,39.40
2018-02-21T14:39:54.328Z,39.60
2018-02-21T14:42:21.899Z,39.00
2018-02-21T14:44:49.443Z,39.10
2018-02-21T14:47:17.032Z,39.70
2018-02-21T14:49:45.359Z,39.50
2018-02-21T14:52:12.991Z,39.50
2018-02-21T14:54:40.549Z,39.20
2018-02-21T14:57:08.121Z,40.00
2018-02-21T14:59:36.439Z,40.50
2018-02-21T15:02:04.016Z,40.50
2018-02-21T15:04:31.652Z,40.70
2018-02-21T15:06:59.216Z,41.50
2018-02-21T15:09:26.767Z,41.20
2018-02-21T15:11:55.112Z,42.10
2018-02-21T15:14:22.691Z,42.00
2018-02-21T15:16:50.260Z,41.70
2018-02-21T15:19:17.822Z,41.90
2018-02-21T15:21:45.465Z,42.40
2018-02-21T15:24:13.037Z,42.80
2018-02-21T15:26:40.588Z,43.40
2018-02-21T15:29:08.943Z,44.40
2018-02-21T15:31:36.542Z,43.90
2018-02-21T15:34:04.884Z,44.20
2018-02-21T15:36:32.428Z,44.20
2018-02-21T15:38:59.994Z,44.60
2018-02-21T15:41:27.573Z,44.80
2018-02-21T15:43:55.136Z,44.70
2018-02-21T15:46:22.779Z,44.70
2018-02-21T15:48:50.355Z,44.90
2018-02-21T15:51:17.905Z,45.30
2018-02-21T15:53:45.448Z,45.70
2018-02-21T15:56:13.045Z,46.00
2018-02-21T15:58:40.628Z,46.10
2018-02-21T16:01:08.964Z,46.70
2018-02-21T16:03:36.885Z,46.70
2018-02-21T16:06:04.455Z,46.60
2018-02-21T16:08:32.021Z,47.00
2018-02-21T16:11:00.676Z,47.70
2018-02-21T16:13:28.219Z,47.70
2018-02-21T16:15:55.814Z,48.00
2018-02-21T16:18:23.364Z,48.00
2018-02-21T16:20:50.943Z,48.30
2018-02-21T16:23:18.524Z,48.40
2018-02-21T16:25:46.872Z,48.90
2018-02-21T16:28:15.360Z,49.00
2018-02-21T16:30:42.912Z,49.00
2018-02-21T16:33:10.476Z,48.80
2018-02-21T16:35:38.022Z,49.00
2018-02-21T16:38:05.623Z,49.40
2018-02-21T16:40:33.160Z,49.80
2018-02-21T16:43:01.492Z,50.50
2018-02-21T16:45:29.041Z,50.50
2018-02-21T16:47:56.619Z,50.20
2018-02-21T16:50:24.937Z,49.80
2018-02-21T16:52:52.799Z,49.70
2018-02-21T16:55:20.507Z,49.70
2018-02-21T16:57:48.088Z,49.80
2018-02-21T17:00:15.734Z,49.80
2018-02-21T17:02:43.329Z,49.80
2018-02-21T17:05:11.660Z,50.20
2018-02-21T17:07:40.202Z,50.20
2018-02-21T17:10:07.753Z,50.60
2018-02-21T17:12:35.316Z,50.90
2018-02-21T17:15:02.907Z,51.00
2018-02-21T17:17:30.500Z,51.30
2018-02-21T17:19:58.068Z,51.20
2018-02-21T17:22:25.620Z,51.40
2018-02-21T17:24:53.969Z,51.40
2018-02-21T17:27:21.663Z,51.40
2018-02-21T17:29:49.223Z,51.30
2018-02-21T17:32:16.764Z,51.50
2018-02-21T17:34:44.658Z,51.40
2018-02-21T17:37:12.290Z,52.00
2018-02-21T17:39:39.852Z,52.10
2018-02-21T17:42:07.471Z,52.20
2018-02-21T17:44:35.166Z,52.20
2018-02-21T17:47:03.478Z,52.40
2018-02-21T17:49:31.066Z,52.40
2018-02-21T17:51:59.411Z,52.50
2018-02-21T17:54:27.057Z,52.50
2018-02-21T17:56:54.619Z,52.90
2018-02-21T17:59:22.951Z,52.40
2018-02-21T18:01:50.504Z,52.40
2018-02-21T18:04:18.061Z,52.60
2018-02-21T18:06:45.604Z,52.50
2018-02-21T18:09:13.180Z,52.70
2018-02-21T18:11:41.560Z,53.10
2018-02-21T18:14:09.114Z,53.10
2018-02-21T18:16:36.689Z,53.50
2018-02-21T18:19:04.236Z,53.50
2018-02-21T18:21:39.244Z,53.40
2018-02-21T18:24:06.788Z,53.40
2018-02-21T18:26:35.095Z,52.50
2018-02-21T18:29:03.424Z,52.80
2018-02-21T18:31:31.016Z,52.80
2018-02-21T18:33:58.560Z,52.50
2018-02-21T18:36:26.241Z,52.70
2018-02-21T18:38:53.799Z,52.30
2018-02-21T18:41:21.411Z,52.60
2018-02-21T18:43:49.004Z,52.80
2018-02-21T18:46:16.570Z,52.80
2018-02-21T18:48:44.894Z,53.00
2018-02-21T18:51:12.472Z,53.00
2018-02-21T18:53:41.779Z,52.40
2018-02-21T18:56:09.335Z,52.80
2018-02-21T18:58:36.951Z,52.60
2018-02-21T19:01:05.272Z,53.20
2018-02-21T19:03:32.828Z,53.10
2018-02-21T19:06:00.384Z,53.20
2018-02-21T19:08:28.823Z,53.80
2018-02-21T19:10:56.438Z,53.70
2018-02-21T19:13:24.747Z,54.10
2018-02-21T19:15:52.296Z,54.10
2018-02-21T19:18:19.884Z,55.10
2018-02-21T19:20:47.471Z,55.50
2018-02-21T19:23:15.052Z,55.90
2018-02-21T19:25:42.665Z,56.30
2018-02-21T19:28:10.301Z,56.60
2018-02-21T19:30:37.860Z,56.90
2018-02-21T19:33:05.412Z,57.10
2018-02-21T19:35:33.075Z,57.20
2018-02-21T19:38:00.628Z,57.60
2018-02-21T19:40:29.088Z,58.00
2018-02-21T19:42:57.411Z,58.10
2018-02-21T19:45:24.976Z,58.00
2018-02-21T19:47:52.541Z,58.20
2018-02-21T19:50:20.103Z,58.10
2018-02-21T19:52:48.411Z,57.90
2018-02-21T19:55:15.984Z,57.90
2018-02-21T19:57:43.525Z,58.40
2018-02-21T20:00:11.099Z,58.30
2018-02-21T20:02:39.442Z,58.50
2018-02-21T20:05:07.808Z,58.80
2018-02-21T20:07:35.398Z,58.70
2018-02-21T20:10:02.960Z,59.40
2018-02-21T20:12:30.519Z,59.50
2018-02-21T20:14:58.068Z,59.80
2018-02-21T20:17:25.639Z,60.10
2018-02-21T20:19:53.947Z,60.60
2018-02-21T20:22:21.529Z,60.70
2018-02-21T20:24:49.121Z,61.20
2018-02-21T20:27:16.801Z,61.30
2018-02-21T20:29:44.353Z,61.90
2018-02-21T20:32:11.909Z,62.00
2018-02-21T20:34:39.456Z,62.50
2018-02-21T20:37:07.025Z,62.60
2018-02-21T20:39:35.354Z,63.10
2018-02-21T20:42:02.916Z,63.00
2018-02-21T20:44:31.247Z,63.70
2018-02-21T20:46:58.812Z,63.70
2018-02-21T20:49:26.365Z,63.80
2018-02-21T20:51:54.723Z,64.30
2018-02-21T20:54:22.491Z,64.20
2018-02-21T20:56:51.001Z,64.40
2018-02-21T20:59:24.939Z,64.40
2018-02-21T21:04:26.743Z,64.80
2018-02-21T21:06:54.333Z,65.20
2018-02-21T21:09:21.923Z,65.30
2018-02-21T21:11:50.524Z,65.60
2018-02-21T21:14:18.083Z,65.60
2018-02-21T21:16:46.602Z,65.60
2018-02-21T21:19:14.984Z,65.90
2018-02-21T21:21:42.636Z,66.10
2018-02-21T21:24:10.196Z,66.20
2018-02-21T21:26:37.790Z,66.40
2018-02-21T21:29:05.359Z,66.60
2018-02-21T21:31:32.950Z,66.80
2018-02-21T21:34:00.569Z,67.00
2018-02-21T21:36:28.133Z,67.90
2018-02-21T21:38:57.224Z,68.00
2018-02-21T21:41:24.788Z,68.00
2018-02-21T21:43:52.341Z,68.20
2018-02-21T21:46:19.917Z,68.20
2018-02-21T21:48:47.460Z,68.60
2018-02-21T21:51:15.018Z,68.80
2018-02-21T21:53:42.584Z,69.20
2018-02-21T21:56:10.156Z,69.30
2018-02-21T21:58:38.488Z,69.60
2018-02-21T22:01:07.018Z,69.40
2018-02-21T22:03:34.572Z,69.80
2018-02-21T22:06:02.140Z,70.10
2018-02-21T22:08:29.692Z,70.50
2018-02-21T22:10:57.263Z,71.00
2018-02-21T22:13:25.576Z,71.30
2018-02-21T22:15:53.321Z,71.30
2018-02-21T22:18:20.887Z,71.40
2018-02-21T22:20:48.441Z,71.40
2018-02-21T22:23:16.049Z,71.50
2018-02-21T22:25:43.608Z,71.80
2018-02-21T22:28:11.176Z,72.00
2018-02-21T22:30:38.722Z,72.10
2018-02-21T22:33:06.288Z,71.70
2018-02-21T22:35:34.612Z,72.60
2018-02-21T22:38:02.184Z,72.60
2018-02-21T22:40:30.657Z,73.30
2018-02-21T22:42:58.987Z,73.30
2018-02-21T22:45:26.532Z,73.30
2018-02-21T22:47:54.099Z,73.60
2018-02-21T22:50:22.413Z,74.10
2018-02-21T22:52:50.028Z,74.10
2018-02-21T22:55:17.579Z,74.20
2018-02-21T22:57:45.131Z,74.30
2018-02-21T23:00:12.729Z,74.60
2018-02-21T23:02:40.290Z,74.90
2018-02-21T23:05:08.799Z,75.00
2018-02-21T23:07:36.352Z,75.00
2018-02-21T23:10:03.970Z,75.30
2018-02-21T23:12:31.524Z,75.40
2018-02-21T23:14:59.196Z,75.70
2018-02-21T23:17:26.817Z,75.80
2018-02-21T23:19:54.456Z,76.20
2018-02-21T23:22:22.003Z,76.00
2018-02-21T23:24:49.551Z,76.20
2018-02-21T23:27:17.128Z,76.40
2018-02-21T23:29:44.770Z,76.40
2018-02-21T23:32:12.344Z,76.50
2018-02-21T23:34:40.000Z,76.70
2018-02-21T23:37:08.333Z,76.90
2018-02-21T23:39:35.881Z,76.80
2018-02-21T23:42:03.504Z,76.90
2018-02-21T23:44:31.052Z,76.80
2018-02-21T23:46:58.985Z,77.00
2018-02-21T23:49:26.551Z,77.00
2018-02-21T23:51:54.152Z,77.40
2018-02-21T23:54:21.758Z,77.70
2018-02-21T23:56:49.319Z,77.60
2018-02-21T23:59:18.435Z,77.80
